Terminal Aerodrome Forecast
Issued by NWS Missoula, MT

Home | Current Version | Previous Version | Text Only | Print | Product List | Glossary On
Versions: 1 2 3 4 5 6 7 8 9 10 11 12 13 14 15 16
000
FTUS45 KMSO 122340
TAFGPI
TAF
KGPI 122340Z 1300/1324 00000KT 2SM BR OVC005
     FM130500 00000KT 1SM BR OVC003
     FM131300 00000KT 1SM -SN BR OVC003
     FM131800 VRB03KT 3SM BR OVC005=

USA.gov is the U.S. government's official web portal to all federal, state and local government web resources and services.